Dedryck Lukaku

Jefe de ojeadores - KV Oostende
4 Jun 2028
Domingo
Continuar

Personalidad

Adaptabilidad (13) Ambición (20) Controversia (15) Lealtad (18) Presión (19) Profesionalismo (1) Deportividad (3) Temperamento (10)

Perfil

Estilo de dirección Democrático
Licencia Nacional B
Determinación 12
Gestión de personas 8
Motivación 10
Disciplina 12
Satisfacción laboral
100%
Fatiga
0%
Cargo Jefe de ojeadores
Salario 36.6K p/s
Contrato 14.03.2030

Rendimiento

Comportamiento Bueno
Efectividad del entrenamiento
52%
Desarrollo de jugadores
20%
Prevención de lesiones
25%
Implementación táctica
45%

Eventos recientes

Evaluó a un jugador ahora

Actualmente siguiendo

61
Jugador Club Estado Habilidad Confianza Observado Última observación Último voto
Finn Jeltsch VfB Stuttgart Activo 150 / 151 40% 1 02.06.2028 -
T-Jay Parfitt Colchester United Activo 92 / 107 40% 1 02.06.2028 -
Issa Tounkara Etoiles du Mande Activo 98 / 107 40% 1 02.06.2028 -
Nacer Courtois KAA Gent Perdido 121 / 116 76% 1 01.06.2028 -
Nicolas Sport Recife Activo 99 / 107 40% 1 07.01.2028 -
Jon Esenga IF Elfsborg Activo 87 / 97 40% 1 07.01.2028 -
Kauã Moraes Cruzeiro Activo 123 / 117 40% 1 07.01.2028 -
Tylel Tati AJ Auxerre Activo 123 / 134 40% 1 05.01.2028 -
Louka Gautier Chamois Niortais Activo 96 / 111 40% 1 05.01.2028 -
Sidiki Chérif Coventry City Activo 138 / 134 40% 2 02.01.2028 -
Yojan Garcés America de Cali Activo 107 / 113 40% 1 02.01.2028 -
Paris Brunner Monaco Activo 121 / 129 40% 1 02.01.2028 -
Darlvin Yeboah Bechem United Activo 80 / 101 40% 2 16.08.2027 -
Hassan Beja AFC Leopards Activo 84 / 105 40% 1 16.08.2027 -
Victor Orakpo OGC Nice Activo 115 / 130 40% 1 16.08.2027 -
Rayan Bournemouth Activo 139 / 136 40% 3 09.08.2027 -
Kabiru Abdullahi Northampton Town Activo 96 / 94 40% 2 09.08.2027 -
Risilanu Ismail El-Kanemi Warriors Activo 81 / 106 40% 1 09.08.2027 -
Tommaso Ravaglioli AlbinoLeffe Activo 90 / 105 40% 1 27.07.2027 -
Pape Diong Westerlo Activo 114 / 133 40% 1 05.07.2027 -
Marius Courcoul Olympique de Marseille Activo 114 / 133 40% 1 05.07.2027 -
Gady Beyuku Modena Activo 118 / 117 40% 1 21.06.2027 -
Jorge Salinas Racing Santander Activo 126 / 132 40% 1 01.06.2027 -
Alessandro Bolzan Sorrento Activo 94 / 88 40% 1 31.01.2027 -
Dom Ballard Leyton Orient Activo 114 / 134 40% 3 30.01.2027 -
Don-Angelo Konadu Ajax Activo 111 / 110 40% 2 28.01.2027 -
Edmund Baidoo Borussia Dortmund Activo 117 / 130 40% 1 28.01.2027 -
David Kalokoh Ajax Activo 114 / 118 40% 3 27.01.2027 -
Elijah Adebayo Luton Town Activo 128 / 128 40% 1 25.01.2027 -
Christian Kouamé CSKA Moscow Activo 130 / 119 40% 1 25.01.2027 -
Will Lankshear Middlesbrough Activo 123 / 119 40% 2 23.01.2027 -
Eden Batshuayi Charleroi Activo 102 / 112 40% 3 22.01.2027 -
Roberto Iliev Slavia Sofia Activo 103 / 113 40% 1 22.01.2027 -
Luke Baartman Ghazl El Mahalla Activo 111 / 102 40% 2 20.01.2027 -
Luca Maiorano Ospitaletto Activo 100 / 106 40% 2 20.01.2027 -
Leo Castledine Middlesbrough Activo 129 / 126 40% 3 19.01.2027 -
Mfundo Vilakazi Kaizer Chiefs Activo 105 / 124 40% 1 19.01.2027 -
Rocco Vata Watford Activo 121 / 124 40% 1 19.01.2027 -
Dramane Kamagaté USM Alger Activo 109 / 100 40% 2 18.01.2027 -
Mateus Mide Porto Activo 96 / 110 40% 1 14.01.2027 -
Iwan Morgan Grimsby Town Activo 113 / 122 40% 1 13.01.2027 -
Francesco Pio Esposito Inter Activo 138 / 155 40% 1 12.01.2027 -
Nathan Mbala FC Metz Activo 96 / 94 40% 1 08.01.2027 -
Otto Stange Hamburger SV Activo 107 / 134 40% 1 07.01.2027 -
Ryan Oné Sheffield United Activo 108 / 122 40% 1 04.01.2027 -
Oumar Camara Vitoria Guimaraes Activo 123 / 127 40% 1 01.01.2027 -
Darren Yapi Colorado Rapids Activo 94 / 122 40% 1 30.08.2026 -
Marcos Gómez Hrvatski Dragovoljac Activo 97 / 92 40% 1 30.08.2026 -
Serge Daura Dynamo Douala Activo 87 / 90 40% 1 25.08.2026 -
Mark Verkuijl Ajax Activo 103 / 119 40% 1 17.08.2026 -
Sven Bouland Groningen Activo 93 / 107 40% 1 17.08.2026 -
Yaël Thébault Stade Rennais Activo 84 / 96 40% 2 10.08.2026 -
Joaquin Seys Club Brugge Activo 117 / 133 40% 1 10.08.2026 -
Peter Quispel PSV Activo 92 / 90 40% 1 09.08.2026 -
Bohdan Budko AZ Activo 111 / 112 40% 1 09.08.2026 -
Julien Astic Clermont Foot Activo 85 / 101 40% 2 07.08.2026 -
Harrison Murray-Campbell Chelsea Activo 90 / 112 40% 1 06.08.2026 -
Kyriani Sabbe Club Brugge Activo 111 / 113 40% 1 05.08.2026 -
Sékou Doucouré FC Nantes Activo 90 / 92 40% 1 03.08.2026 -
Mathieu Patouillet Stade Brestois Activo 108 / 110 40% 1 01.08.2026 -
Luca Zidane Leganés Activo 125 / 131 40% 1 01.08.2026 -